Archival Weather

Heathrow

London, United Kingdom (EGLL)

Report from: Tuesday, September 19, 2023 4:50 PM BST
Current time: Tuesday, July 16, 2024 9:28 AM BST

Current weather – Weather history – Daily summaries
Weather forecast

Temperature19.0°C (66.2°F)
Dew point15.0°C (59.0°F)
Winds 16 kts (8.2 m/s, 18.4 mph) Southwest (220°)
Visibility6.2 mi. (10 km)
Clouds Ceiling: Broken clouds 1,500 ft. (457 m)
Overcast 2,100 ft. (640 m)
Altimeter29.68 in.Hg (1005 mB)
Relative humidity78 %
Density altitude984 ft. (300 m)
Remarks Fully automated report
No significant changes expected in the next two hours
Flight conditions Marginal Visual Meteorological Conditions
Raw dataEGLL 191550Z AUTO 22016KT 9999 BKN015 OVC021 19/15 Q1005 NOSIG
An error has occurred. This application may no longer respond until reloaded. Reload 🗙